Time;durP1;ratioP1;P1;durP2;ratioP2;P2;SDS_P1;SDS_P2;PMS_P1;PMS_P2;Temp;Humidity;BMP_temperature;BMP_pressure;BME280_temperature;BME280_humidity;BME280_pressure;Samples;Min_cycle;Max_cycle;Signal;HPM_P1;HPM_P2
2022/04/05 00:01:17;;;;;;;2.67;1.20;;;23.10;64.60;;;;;;5010247;23;20026;-42
2022/04/05 00:03:19;;;;;;;1.83;1.10;;;23.10;64.50;;;;;;5036335;23;20033;-40
2022/04/05 00:05:22;;;;;;;5.68;1.77;;;23.20;64.40;;;;;;5037563;23;20037;-43
2022/04/05 00:07:24;;;;;;;3.03;1.30;;;23.20;64.30;;;;;;5042813;23;20087;-41
2022/04/05 00:09:26;;;;;;;1.60;1.17;;;23.20;64.20;;;;;;5035274;23;20068;-42
2022/04/05 00:11:28;;;;;;;1.70;1.10;;;23.20;64.10;;;;;;5034512;23;20097;-41
2022/04/05 00:13:30;;;;;;;1.48;1.15;;;23.20;64.00;;;;;;5015527;23;20181;-43
2022/04/05 00:15:34;;;;;;;1.30;1.00;;;23.30;64.10;;;;;;5039414;23;21126;-41
2022/04/05 00:17:37;;;;;;;4.25;1.38;;;23.30;64.00;;;;;;5007608;23;20605;-41
2022/04/05 00:19:39;;;;;;;3.30;1.27;;;23.30;63.90;;;;;;5035198;23;20036;-42
2022/04/05 00:21:42;;;;;;;14.07;1.92;;;23.30;63.80;;;;;;5017708;23;20113;-43
2022/04/05 00:23:44;;;;;;;2.38;1.38;;;23.40;63.90;;;;;;5034810;23;20133;-44
2022/04/05 00:25:46;;;;;;;7.72;1.58;;;23.40;63.80;;;;;;5035598;23;20247;-42
2022/04/05 00:27:49;;;;;;;4.25;1.48;;;23.40;63.80;;;;;;4986512;23;20034;-44
2022/04/05 00:29:51;;;;;;;3.33;1.67;;;23.40;63.80;;;;;;5039879;23;20025;-43
2022/04/05 00:31:53;;;;;;;3.20;1.40;;;23.50;63.80;;;;;;5032645;23;20268;-41
2022/04/05 00:33:55;;;;;;;3.55;1.35;;;23.50;63.70;;;;;;5033993;23;20065;-44
2022/04/05 00:35:57;;;;;;;4.25;1.25;;;23.50;63.70;;;;;;5040449;23;20037;-42
2022/04/05 00:37:59;;;;;;;4.32;1.30;;;23.50;63.60;;;;;;5034618;23;20931;-42
2022/04/05 00:40:04;;;;;;;5.95;1.25;;;23.50;63.60;;;;;;5033381;23;20463;-43
2022/04/05 00:42:09;;;;;;;3.53;1.20;;;23.50;63.60;;;;;;5039000;23;20088;-44
2022/04/05 00:44:11;;;;;;;3.55;1.13;;;23.50;63.60;;;;;;5042146;23;20021;-44
2022/04/05 00:46:14;;;;;;;3.25;1.33;;;23.50;63.60;;;;;;5036432;23;20034;-41
2022/04/05 00:48:43;;;;;;;2.72;1.15;;;23.60;63.60;;;;;;5033826;23;20510;-42
2022/04/05 00:50:45;;;;;;;16.10;1.50;;;23.60;63.70;;;;;;5042922;23;20116;-41
2022/04/05 00:52:48;;;;;;;4.22;0.93;;;23.60;63.70;;;;;;5036952;23;20033;-43
2022/04/05 00:54:52;;;;;;;2.72;1.27;;;23.60;63.60;;;;;;5007033;23;20042;-44
2022/04/05 00:56:57;;;;;;;4.03;1.08;;;23.60;63.60;;;;;;5041452;23;20087;-47
2022/04/05 00:59:01;;;;;;;3.22;1.05;;;23.60;63.70;;;;;;5043201;23;20029;-45
2022/04/05 01:01:05;;;;;;;4.80;1.40;;;23.70;63.70;;;;;;5031277;23;20567;-44
2022/04/05 01:03:08;;;;;;;2.85;1.00;;;23.70;63.70;;;;;;5036836;23;20037;-46
2022/04/05 01:05:11;;;;;;;6.75;1.55;;;23.70;63.70;;;;;;5039301;23;20721;-46
2022/04/05 01:07:19;;;;;;;5.85;1.48;;;23.70;63.70;;;;;;5043392;23;20040;-41
2022/04/05 01:09:21;;;;;;;5.40;1.73;;;23.70;63.30;;;;;;5040058;23;20032;-42
2022/04/05 01:11:24;;;;;;;6.93;1.83;;;23.80;63.10;;;;;;5036801;23;20111;-40
2022/04/05 01:13:28;;;;;;;10.40;2.08;;;23.80;63.40;;;;;;5037118;23;20229;-42
2022/04/05 01:15:30;;;;;;;14.43;2.75;;;23.80;63.40;;;;;;5043960;23;20219;-44
2022/04/05 01:17:35;;;;;;;2.03;1.40;;;23.80;63.50;;;;;;5035446;23;20582;-42
2022/04/05 01:19:37;;;;;;;6.40;1.80;;;23.80;63.50;;;;;;5008404;23;20057;-43
2022/04/05 01:21:39;;;;;;;2.35;1.42;;;23.90;63.60;;;;;;5037935;23;20029;-39
2022/04/05 01:24:07;;;;;;;6.83;1.50;;;23.90;63.60;;;;;;5016339;23;20456;-44
2022/04/05 01:26:09;;;;;;;4.40;1.67;;;24.00;63.30;;;;;;5032511;23;20566;-42
2022/04/05 01:28:11;;;;;;;6.20;1.55;;;24.00;62.70;;;;;;5040835;23;20033;-41
2022/04/05 01:30:14;;;;;;;5.30;1.87;;;24.00;62.80;;;;;;4987189;23;20972;-43
2022/04/05 01:32:16;;;;;;;2.70;1.20;;;24.00;62.90;;;;;;5009992;23;20550;-41
2022/04/05 01:34:21;;;;;;;6.28;1.55;;;24.00;63.10;;;;;;5011088;23;20034;-42
2022/04/05 01:36:23;;;;;;;2.63;1.25;;;24.00;63.10;;;;;;5045059;23;20048;-41
2022/04/05 01:38:26;;;;;;;1.58;1.20;;;24.00;63.20;;;;;;5036713;23;20228;-40
2022/04/05 01:40:28;;;;;;;1.17;0.82;;;24.10;63.30;;;;;;5033610;23;20849;-40
2022/04/05 01:42:30;;;;;;;2.25;1.30;;;24.20;63.20;;;;;;5038049;23;20029;-43
2022/04/05 01:44:34;;;;;;;3.03;1.03;;;24.20;63.30;;;;;;5043055;23;20032;-44
2022/04/05 01:46:36;;;;;;;1.30;1.00;;;24.20;63.20;;;;;;5034190;23;20843;-43
2022/04/05 01:48:39;;;;;;;1.90;1.00;;;24.30;63.30;;;;;;5008583;23;20026;-39
2022/04/05 01:50:43;;;;;;;6.32;1.23;;;24.30;63.30;;;;;;5042071;23;20271;-45
2022/04/05 01:52:45;;;;;;;1.38;1.00;;;24.30;63.30;;;;;;5042995;23;20060;-40
2022/04/05 01:54:47;;;;;;;3.20;1.10;;;24.40;63.20;;;;;;5038137;23;20029;-39
2022/04/05 01:56:52;;;;;;;1.05;0.90;;;24.40;63.10;;;;;;5036924;23;20559;-40
2022/04/05 01:58:54;;;;;;;1.55;0.98;;;24.40;63.10;;;;;;5038619;23;20029;-41
2022/04/05 02:00:57;;;;;;;1.08;0.70;;;24.50;63.10;;;;;;5010324;23;20874;-43
2022/04/05 02:02:59;;;;;;;2.05;0.82;;;24.50;63.00;;;;;;5034596;23;20088;-43
2022/04/05 02:05:01;;;;;;;1.38;0.95;;;24.60;63.00;;;;;;5038646;23;20116;-41
2022/04/05 02:07:16;;;;;;;1.20;0.80;;;24.60;62.90;;;;;;5044237;23;20807;-43
2022/04/05 02:09:19;;;;;;;1.20;0.90;;;24.70;63.00;;;;;;5040453;23;20037;-40
2022/04/05 02:11:23;;;;;;;5.35;0.90;;;24.70;62.90;;;;;;5013741;23;20637;-44
2022/04/05 02:13:25;;;;;;;1.73;0.93;;;24.70;62.90;;;;;;5036721;23;20048;-40
2022/04/05 02:15:28;;;;;;;1.90;0.68;;;24.70;62.90;;;;;;5036680;23;21006;-42
2022/04/05 02:17:30;;;;;;;1.52;0.70;;;24.80;62.90;;;;;;5042616;23;20091;-40
2022/04/05 02:19:34;;;;;;;2.05;0.77;;;24.80;62.90;;;;;;5035482;23;20025;-43
2022/04/05 02:21:36;;;;;;;0.70;0.70;;;24.80;62.80;;;;;;5038351;23;20813;-43
2022/04/05 02:23:40;;;;;;;0.87;0.80;;;24.90;62.80;;;;;;5044820;23;20491;-41
2022/04/05 02:25:42;;;;;;;1.65;1.00;;;24.90;62.40;;;;;;5043868;23;20022;-42
2022/04/05 02:27:45;;;;;;;1.50;1.10;;;24.90;61.80;;;;;;5037965;23;20567;-42
2022/04/05 02:29:47;;;;;;;2.42;1.40;;;24.90;61.40;;;;;;5039669;23;20037;-40
2022/04/05 02:31:49;;;;;;;2.63;1.20;;;24.90;62.00;;;;;;5045213;23;20108;-41
2022/04/05 02:33:52;;;;;;;3.78;1.30;;;25.00;62.40;;;;;;5043589;23;20774;-45
2022/04/05 02:35:54;;;;;;;2.43;1.57;;;25.00;62.70;;;;;;5050594;23;20496;-43
2022/04/05 02:38:00;;;;;;;2.42;1.08;;;25.00;62.80;;;;;;5026722;23;20561;-40
2022/04/05 02:40:02;;;;;;;1.33;1.00;;;25.10;63.60;;;;;;5054147;23;20025;-43
2022/04/05 02:42:05;;;;;;;1.63;1.13;;;25.10;62.80;;;;;;5047971;23;20025;-40
2022/04/05 02:44:07;;;;;;;0.97;0.90;;;25.10;62.70;;;;;;5049042;23;20057;-41
2022/04/05 02:46:11;;;;;;;1.15;1.02;;;25.20;62.70;;;;;;5022956;23;20022;-41
2022/04/05 02:48:13;;;;;;;1.50;1.10;;;25.20;62.60;;;;;;5026644;23;20165;-40
2022/04/05 02:50:18;;;;;;;2.55;1.08;;;25.20;62.60;;;;;;5044637;23;20025;-41
2022/04/05 02:52:20;;;;;;;2.45;0.80;;;25.30;62.50;;;;;;5046319;23;20111;-43
2022/04/05 02:54:23;;;;;;;1.10;0.85;;;25.30;62.40;;;;;;5046308;23;20029;-41
2022/04/05 02:56:25;;;;;;;2.13;0.80;;;25.30;62.40;;;;;;5049459;23;20029;-44
2022/04/05 02:58:27;;;;;;;1.52;0.90;;;25.30;62.30;;;;;;5045693;23;20136;-45
2022/04/05 03:00:29;;;;;;;2.55;1.20;;;25.40;62.30;;;;;;5043502;23;20514;-41
2022/04/05 03:02:31;;;;;;;1.70;1.03;;;25.40;62.30;;;;;;5051334;23;20025;-40
2022/04/05 03:04:36;;;;;;;2.83;1.13;;;25.40;62.30;;;;;;5021171;23;20018;-42
2022/04/05 03:06:38;;;;;;;1.30;0.80;;;25.40;62.30;;;;;;5044826;23;20097;-44
2022/04/05 03:08:40;;;;;;;2.92;0.60;;;25.50;62.30;;;;;;5047342;23;20032;-40
2022/04/05 03:10:42;;;;;;;2.35;0.70;;;25.50;62.30;;;;;;5049192;23;20716;-42
2022/04/05 03:12:44;;;;;;;2.30;0.77;;;25.50;62.20;;;;;;5046004;23;20049;-44
2022/04/05 03:14:46;;;;;;;1.75;0.80;;;25.50;62.20;;;;;;5045944;23;20040;-42
2022/04/05 03:16:49;;;;;;;2.10;0.93;;;25.60;62.20;;;;;;5050511;23;20537;-42
2022/04/05 03:18:53;;;;;;;2.38;0.63;;;25.60;62.20;;;;;;5020953;23;20537;-40
2022/04/05 03:20:55;;;;;;;0.90;0.63;;;25.60;62.20;;;;;;5043375;23;20037;-44
2022/04/05 03:22:59;;;;;;;0.50;0.40;;;25.60;62.10;;;;;;5048559;23;20510;-45
2022/04/05 03:25:01;;;;;;;1.52;0.93;;;25.70;62.20;;;;;;5052408;23;20037;-39
2022/04/05 03:27:03;;;;;;;1.60;0.70;;;25.70;62.20;;;;;;5045239;23;20491;-40
2022/04/05 03:29:05;;;;;;;1.88;0.88;;;25.70;62.10;;;;;;5049399;23;20030;-41
2022/04/05 03:31:08;;;;;;;1.17;0.85;;;25.70;62.10;;;;;;5058023;23;20103;-41
2022/04/05 03:33:10;;;;;;;1.30;0.70;;;25.70;62.20;;;;;;5027502;23;20665;-41
2022/04/05 03:35:12;;;;;;;0.93;0.73;;;25.70;62.10;;;;;;5056104;23;20029;-40
2022/04/05 03:37:14;;;;;;;1.27;0.88;;;25.80;62.20;;;;;;5053921;23;20909;-42
2022/04/05 03:39:17;;;;;;;0.93;0.80;;;25.90;62.10;;;;;;5029223;23;20120;-41
2022/04/05 03:41:49;;;;;;;1.27;0.60;;;25.90;62.10;;;;;;5059747;23;20025;-42
2022/04/05 03:44:15;;;;;;;5.60;1.10;;;25.90;62.10;;;;;;5066076;23;20469;-41
2022/04/05 03:46:17;;;;;;;2.28;0.70;;;26.00;62.00;;;;;;5060870;23;20026;-40
2022/04/05 03:48:19;;;;;;;1.10;0.73;;;26.00;62.00;;;;;;5072363;23;20032;-40
2022/04/05 03:53:56;;;;;;;1.20;0.70;;;26.10;61.70;;;;;;5064126;23;20080;-41
2022/04/05 03:56:04;;;;;;;1.60;0.70;;;26.10;61.60;;;;;;5056806;23;20082;-41
2022/04/05 03:58:06;;;;;;;1.90;0.52;;;26.20;61.60;;;;;;5055880;23;20589;-39
2022/04/05 04:00:44;;;;;;;2.17;0.75;;;26.20;61.70;;;;;;5040058;23;20018;-39
2022/04/05 04:02:51;;;;;;;0.68;0.60;;;26.30;61.70;;;;;;5037240;23;20029;-41
2022/04/05 04:04:54;;;;;;;1.00;0.70;;;26.30;61.50;;;;;;5035769;23;20029;-40
2022/04/05 04:06:56;;;;;;;3.30;1.00;;;26.30;61.40;;;;;;5037485;23;20032;-43
2022/04/05 04:08:58;;;;;;;0.70;0.70;;;26.40;61.40;;;;;;5035012;23;20025;-39
2022/04/05 04:11:31;;;;;;;0.73;0.60;;;26.50;61.30;;;;;;5042117;23;20021;-39
2022/04/05 04:13:33;;;;;;;0.80;0.60;;;26.50;61.40;;;;;;5038360;23;20052;-42
2022/04/05 04:15:35;;;;;;;1.13;0.80;;;26.60;61.30;;;;;;5038571;23;20840;-42
2022/04/05 04:17:38;;;;;;;0.60;0.40;;;26.60;60.80;;;;;;5036878;23;20079;-41
2022/04/05 04:19:40;;;;;;;0.50;0.50;;;26.70;61.20;;;;;;5008245;23;20686;-48
2022/04/05 04:21:42;;;;;;;0.50;0.50;;;26.70;61.00;;;;;;5039942;23;20770;-40
2022/04/05 04:23:45;;;;;;;1.10;0.73;;;26.70;61.00;;;;;;5011257;23;20370;-40
2022/04/05 04:25:47;;;;;;;1.10;0.80;;;26.80;61.00;;;;;;5008953;23;20032;-39
2022/04/05 04:27:49;;;;;;;1.73;0.70;;;26.90;61.00;;;;;;5035687;23;20053;-41
2022/04/05 04:29:52;;;;;;;1.40;0.67;;;26.90;60.80;;;;;;5040991;23;20025;-43
2022/04/05 04:31:54;;;;;;;0.88;0.57;;;26.90;60.80;;;;;;5010629;23;20600;-42
2022/04/05 04:33:57;;;;;;;0.63;0.47;;;27.00;60.80;;;;;;5034083;23;20051;-39
2022/04/05 04:36:00;;;;;;;0.50;0.40;;;27.10;60.80;;;;;;5035607;23;20025;-42
2022/04/05 04:38:03;;;;;;;1.05;0.52;;;27.10;61.40;;;;;;5041255;23;20464;-43
2022/04/05 04:40:09;;;;;;;0.82;0.50;;;27.20;60.70;;;;;;5012861;23;20748;-42
2022/04/05 04:42:12;;;;;;;0.93;0.60;;;27.30;60.60;;;;;;5035389;23;20479;-41
2022/04/05 04:44:13;;;;;;;;;;;27.30;60.60;;;;;;5036822;23;20512;-40
2022/04/05 04:46:15;;;;;;;0.60;0.47;;;27.40;60.70;;;;;;4992741;23;20001;-43
2022/04/05 04:48:19;;;;;;;1.13;0.50;;;27.40;60.60;;;;;;5032948;23;20040;-39
2022/04/05 04:50:22;;;;;;;0.50;0.50;;;27.50;60.60;;;;;;5035491;23;20084;-40
2022/04/05 04:52:24;;;;;;;1.23;0.45;;;27.50;60.40;;;;;;5039925;23;20559;-40
2022/04/05 04:54:27;;;;;;;0.68;0.47;;;27.60;60.40;;;;;;5039087;23;20051;-43
2022/04/05 04:56:29;;;;;;;0.55;0.50;;;27.70;60.40;;;;;;5008087;23;20113;-44
2022/04/05 04:58:32;;;;;;;1.30;0.73;;;27.70;60.30;;;;;;5036724;23;20033;-41
2022/04/05 05:00:34;;;;;;;0.40;0.40;;;27.80;60.40;;;;;;5010745;23;20025;-40
2022/04/05 05:02:46;;;;;;;0.85;0.57;;;27.80;60.20;;;;;;5035194;23;20081;-44
2022/04/05 05:04:52;;;;;;;0.93;0.57;;;27.90;60.30;;;;;;5015866;23;20121;-41
2022/04/05 05:06:54;;;;;;;2.35;0.68;;;27.90;60.30;;;;;;5042519;23;20048;-40
2022/04/05 05:08:56;;;;;;;1.17;0.60;;;28.00;60.30;;;;;;5042993;23;20029;-42
2022/04/05 05:10:58;;;;;;;0.50;0.40;;;28.00;60.30;;;;;;5047979;23;20277;-40
2022/04/05 05:13:00;;;;;;;0.50;0.50;;;28.00;60.40;;;;;;5016204;23;20041;-42
2022/04/05 05:15:03;;;;;;;0.67;0.40;;;28.00;60.40;;;;;;5040937;23;20030;-42
2022/04/05 05:17:06;;;;;;;1.75;0.60;;;28.10;60.50;;;;;;4994043;23;20037;-41
2022/04/05 05:19:08;;;;;;;5.28;0.93;;;28.10;60.40;;;;;;5017766;23;20026;-43
2022/04/05 05:21:11;;;;;;;2.58;0.77;;;28.10;60.30;;;;;;5040476;23;20026;-43
2022/04/05 05:23:13;;;;;;;1.55;0.60;;;28.10;60.20;;;;;;5041007;23;20127;-40
2022/04/05 05:25:15;;;;;;;4.13;0.95;;;28.10;60.20;;;;;;5045581;23;20128;-41
2022/04/05 05:27:18;;;;;;;5.27;0.80;;;28.10;60.10;;;;;;5039904;23;20029;-41
2022/04/05 05:29:20;;;;;;;0.87;0.53;;;28.20;60.20;;;;;;5039409;23;20025;-46
2022/04/05 05:31:22;;;;;;;4.13;0.80;;;28.20;60.20;;;;;;5045326;23;20271;-42
2022/04/05 05:33:24;;;;;;;2.20;0.90;;;28.20;60.10;;;;;;5038536;23;20945;-44
2022/04/05 05:35:26;;;;;;;1.55;0.88;;;28.30;60.10;;;;;;5034490;23;20311;-41
2022/04/05 05:37:29;;;;;;;0.95;0.68;;;28.30;60.00;;;;;;5035114;23;20103;-43
2022/04/05 05:39:32;;;;;;;2.08;0.68;;;28.30;60.00;;;;;;5041101;23;20030;-42
2022/04/05 05:41:34;;;;;;;2.20;0.47;;;28.30;60.00;;;;;;5035796;23;20033;-41
2022/04/05 05:43:37;;;;;;;0.90;0.47;;;28.30;60.00;;;;;;5037477;23;20021;-40
2022/04/05 05:45:40;;;;;;;9.18;0.80;;;28.30;60.10;;;;;;5016671;23;20042;-41
2022/04/05 05:47:42;;;;;;;3.75;0.57;;;28.30;60.00;;;;;;5038376;23;20136;-43
2022/04/05 05:49:44;;;;;;;1.70;0.45;;;28.30;60.50;;;;;;5007296;23;20050;-44
2022/04/05 05:51:46;;;;;;;2.23;0.50;;;28.30;60.00;;;;;;5036150;23;20029;-42
2022/04/05 05:53:48;;;;;;;2.67;0.68;;;28.30;60.00;;;;;;5040986;23;20120;-42
2022/04/05 05:55:50;;;;;;;1.00;0.50;;;28.30;60.00;;;;;;5032863;23;20399;-42
2022/04/05 05:57:53;;;;;;;3.33;0.80;;;28.30;60.00;;;;;;5033043;23;20029;-40
2022/04/05 05:59:55;;;;;;;2.47;0.67;;;28.40;60.00;;;;;;5040509;23;20112;-40
2022/04/05 06:01:57;;;;;;;1.00;0.68;;;28.40;60.00;;;;;;5036446;23;20022;-41
2022/04/05 06:03:59;;;;;;;0.47;0.30;;;28.40;59.90;;;;;;5032565;23;20030;-42
2022/04/05 06:06:01;;;;;;;0.87;0.50;;;28.30;59.80;;;;;;5011648;23;20567;-42
2022/04/05 06:08:04;;;;;;;2.30;0.60;;;28.30;59.80;;;;;;5015794;23;20632;-41
2022/04/05 06:10:09;;;;;;;1.02;0.40;;;28.30;59.80;;;;;;5034239;23;20488;-42
2022/04/05 06:12:11;;;;;;;0.98;0.40;;;28.30;59.80;;;;;;5032369;23;20607;-42
2022/04/05 06:14:13;;;;;;;0.47;0.32;;;28.30;59.80;;;;;;5040307;23;20029;-42
2022/04/05 06:16:16;;;;;;;1.70;0.73;;;28.30;59.80;;;;;;5040079;23;20025;-42
2022/04/05 06:18:18;;;;;;;0.65;0.43;;;28.30;60.00;;;;;;5010503;23;20029;-40
2022/04/05 06:20:22;;;;;;;0.37;0.37;;;28.30;60.00;;;;;;5039369;23;20884;-40
2022/04/05 06:22:24;;;;;;;1.35;0.60;;;28.30;60.00;;;;;;5042698;23;20132;-43
2022/04/05 06:24:26;;;;;;;2.05;0.63;;;28.30;60.00;;;;;;5035889;23;20034;-42
2022/04/05 06:26:28;;;;;;;6.03;0.82;;;28.30;60.00;;;;;;5043330;23;20390;-41
2022/04/05 06:28:31;;;;;;;3.03;0.68;;;28.30;60.00;;;;;;5039918;23;20128;-45
2022/04/05 06:30:34;;;;;;;3.45;0.63;;;28.30;60.00;;;;;;5037908;23;20551;-40
2022/04/05 06:32:36;;;;;;;2.55;0.70;;;28.30;60.00;;;;;;5033860;23;20029;-43
2022/04/05 06:34:39;;;;;;;1.73;0.67;;;28.30;60.00;;;;;;5037804;23;20645;-41
2022/04/05 06:36:41;;;;;;;1.08;0.65;;;28.30;60.10;;;;;;5043302;23;20418;-44
2022/04/05 06:38:43;;;;;;;3.42;1.00;;;28.30;60.10;;;;;;5033750;23;20033;-47
2022/04/05 06:40:46;;;;;;;3.53;0.83;;;28.30;60.20;;;;;;5010453;23;20729;-44
2022/04/05 06:42:49;;;;;;;3.22;1.08;;;28.20;60.20;;;;;;5039134;23;20030;-43
2022/04/05 06:44:51;;;;;;;2.63;1.00;;;28.20;60.30;;;;;;5040101;23;20750;-41
2022/04/05 06:46:53;;;;;;;10.45;1.08;;;28.30;60.40;;;;;;5034968;23;20040;-44
2022/04/05 06:48:56;;;;;;;2.95;1.10;;;28.20;60.40;;;;;;4989845;23;20053;-45
2022/04/05 06:50:58;;;;;;;3.13;1.40;;;28.20;60.40;;;;;;5046445;23;20036;-45
2022/04/05 06:53:01;;;;;;;1.87;1.40;;;28.20;60.60;;;;;;5011800;23;20064;-46
2022/04/05 06:55:03;;;;;;;3.95;1.90;;;28.20;60.70;;;;;;5036972;23;20574;-42
2022/04/05 06:57:06;;;;;;;3.13;1.77;;;28.20;60.80;;;;;;5040850;23;20029;-40
2022/04/05 06:59:08;;;;;;;3.30;2.03;;;28.20;60.80;;;;;;5039081;23;20152;-42
2022/04/05 07:01:10;;;;;;;9.90;2.37;;;28.20;60.80;;;;;;5035466;23;20025;-40
2022/04/05 07:03:12;;;;;;;3.20;2.43;;;28.20;60.90;;;;;;5041966;23;20552;-40
2022/04/05 07:05:15;;;;;;;3.38;2.17;;;28.20;61.00;;;;;;5047246;23;20909;-42
2022/04/05 07:07:17;;;;;;;3.17;2.35;;;28.20;61.10;;;;;;5042676;23;20809;-42
2022/04/05 07:09:19;;;;;;;3.15;2.50;;;28.20;61.10;;;;;;5044285;23;20647;-41
2022/04/05 07:11:22;;;;;;;3.85;2.38;;;28.20;61.10;;;;;;5049892;23;20031;-40
2022/04/05 07:13:24;;;;;;;3.88;2.72;;;28.20;61.20;;;;;;5042064;23;20026;-42
2022/04/05 07:15:26;;;;;;;3.92;3.00;;;28.20;61.20;;;;;;5042863;23;20096;-40
2022/04/05 07:17:28;;;;;;;4.43;3.37;;;28.20;61.30;;;;;;5047084;23;20115;-41
2022/04/05 07:19:30;;;;;;;3.88;3.40;;;28.10;61.30;;;;;;5044636;23;20072;-41
2022/04/05 07:21:32;;;;;;;6.17;3.60;;;28.10;61.30;;;;;;5046238;23;20064;-40
2022/04/05 07:23:36;;;;;;;4.28;3.60;;;28.20;61.50;;;;;;5048171;23;20263;-39
2022/04/05 07:25:38;;;;;;;5.57;4.00;;;28.10;61.40;;;;;;5051065;23;20025;-39
2022/04/05 07:27:40;;;;;;;4.32;3.58;;;28.10;61.50;;;;;;5051410;23;20053;-41
2022/04/05 07:29:46;;;;;;;4.37;3.77;;;28.10;61.50;;;;;;5048436;23;20705;-44
2022/04/05 07:31:48;;;;;;;5.32;4.57;;;28.10;61.50;;;;;;5049865;23;20025;-44
2022/04/05 07:33:50;;;;;;;6.10;5.50;;;28.10;62.20;;;;;;5046925;23;20943;-42
2022/04/05 07:35:52;;;;;;;11.63;6.38;;;28.10;61.60;;;;;;5018626;23;20068;-41
2022/04/05 07:37:54;;;;;;;6.43;5.83;;;28.00;61.60;;;;;;5023921;23;20143;-42
2022/04/05 07:40:00;;;;;;;8.90;8.10;;;28.00;61.70;;;;;;5057049;23;20029;-41
2022/04/05 07:42:03;;;;;;;9.48;8.68;;;28.00;61.80;;;;;;5057086;23;20362;-42
2022/04/05 07:44:05;;;;;;;10.30;9.50;;;28.00;61.90;;;;;;5057349;23;20056;-48
2022/04/05 07:46:10;;;;;;;10.10;9.20;;;28.00;61.90;;;;;;5031034;23;20395;-43
2022/04/05 07:48:12;;;;;;;10.80;9.90;;;28.00;61.90;;;;;;5059580;23;20048;-43
2022/04/05 07:50:14;;;;;;;11.18;10.32;;;28.00;61.80;;;;;;5051493;23;20416;-47
2022/04/05 07:52:17;;;;;;;11.05;10.10;;;27.90;61.70;;;;;;5056628;23;20025;-42
2022/04/05 08:00:01;;;;;;;13.15;11.65;;;27.90;61.50;;;;;;5067850;23;20076;-40
2022/04/05 08:05:34;;;;;;;12.10;10.38;;;27.80;61.60;;;;;;5082712;23;20007;-41
2022/04/05 08:07:55;;;;;;;9.85;8.98;;;27.80;61.60;;;;;;5070865;23;20149;-44
2022/04/05 08:10:24;;;;;;;8.82;7.93;;;27.80;61.60;;;;;;5023352;23;20026;-41
2022/04/05 08:12:26;;;;;;;8.88;8.15;;;27.80;61.60;;;;;;5033562;23;20718;-43
2022/04/05 08:14:29;;;;;;;8.57;7.80;;;27.70;61.50;;;;;;5039586;23;20086;-40
2022/04/05 08:16:32;;;;;;;6.97;6.38;;;27.70;61.50;;;;;;5033836;23;20102;-41
2022/04/05 08:18:34;;;;;;;7.25;6.65;;;27.70;61.50;;;;;;5036510;23;20033;-46
2022/04/05 08:20:39;;;;;;;7.07;6.37;;;27.70;61.60;;;;;;5035792;23;20049;-40
2022/04/05 08:22:42;;;;;;;6.65;6.05;;;27.60;61.50;;;;;;5033259;23;20395;-41
2022/04/05 08:24:43;;;;;;;;;;;27.60;61.50;;;;;;5038552;23;20118;-40
2022/04/05 08:26:46;;;;;;;6.03;5.53;;;27.60;61.50;;;;;;5007425;23;19921;-41
2022/04/05 08:28:48;;;;;;;5.38;4.82;;;27.60;61.50;;;;;;5039104;23;20057;-42
2022/04/05 08:30:50;;;;;;;4.80;4.28;;;27.60;61.50;;;;;;5032195;23;20742;-41
2022/04/05 08:32:52;;;;;;;5.22;4.72;;;27.50;61.50;;;;;;5034641;23;20080;-45
2022/04/05 08:34:54;;;;;;;4.97;4.57;;;27.50;61.50;;;;;;4990242;23;21306;-42
2022/04/05 08:36:57;;;;;;;4.43;4.03;;;27.50;61.50;;;;;;5035811;23;20104;-42
2022/04/05 08:38:59;;;;;;;;;;;27.50;61.60;;;;;;5036237;23;20036;-42
2022/04/05 08:41:05;;;;;;;4.30;3.90;;;27.50;61.60;;;;;;5036242;23;20019;-42
2022/04/05 08:43:07;;;;;;;3.67;3.38;;;27.50;61.60;;;;;;5011971;23;20736;-42
2022/04/05 08:45:12;;;;;;;3.75;3.28;;;27.50;61.60;;;;;;5010249;23;21092;-42
2022/04/05 08:47:15;;;;;;;4.35;3.15;;;27.40;61.60;;;;;;5035339;23;20064;-40
2022/04/05 08:49:18;;;;;;;3.80;3.10;;;27.40;61.60;;;;;;5040225;23;20226;-43
2022/04/05 08:51:21;;;;;;;4.97;3.70;;;27.40;61.70;;;;;;5041144;23;20543;-44
2022/04/05 08:53:24;;;;;;;3.80;3.40;;;27.40;62.00;;;;;;5032716;23;21063;-44
2022/04/05 08:55:25;;;;;;;;;;;27.30;62.00;;;;;;5033588;23;20049;-44
2022/04/05 08:57:28;;;;;;;3.42;2.97;;;27.40;62.10;;;;;;5034650;23;19920;-41
2022/04/05 08:59:31;;;;;;;4.47;3.25;;;27.30;62.20;;;;;;5040414;23;20049;-42
2022/04/05 09:01:34;;;;;;;5.78;3.10;;;27.30;62.40;;;;;;5026792;23;20086;-43
2022/04/05 09:03:36;;;;;;;;;;;27.30;62.50;;;;;;5024626;23;20731;-44
2022/04/05 09:05:47;;;;;;;4.20;3.65;;;27.30;62.70;;;;;;5040863;23;20199;-41
2022/04/05 09:07:49;;;;;;;3.72;3.28;;;27.30;62.90;;;;;;5013332;23;20041;-40
2022/04/05 09:10:13;;;;;;;3.83;3.20;;;27.30;63.00;;;;;;5035701;23;20033;-39
2022/04/05 09:12:18;;;;;;;3.20;2.90;;;27.20;63.00;;;;;;5039823;23;20374;-41
2022/04/05 09:14:30;;;;;;;3.00;2.70;;;27.20;63.70;;;;;;5042768;23;20044;-42
2022/04/05 09:16:34;;;;;;;3.65;2.75;;;27.20;63.20;;;;;;5047982;23;20036;-40
2022/04/05 09:18:40;;;;;;;4.65;2.78;;;27.20;63.20;;;;;;5044600;23;20025;-41
2022/04/05 09:20:47;;;;;;;3.00;2.50;;;27.20;63.20;;;;;;5040963;23;20295;-49
2022/04/05 09:22:51;;;;;;;4.38;2.60;;;27.20;63.30;;;;;;5041483;23;20453;-49
2022/04/05 09:24:53;;;;;;;9.10;2.90;;;27.20;63.20;;;;;;5046381;23;20092;-41
2022/04/05 09:26:55;;;;;;;2.40;2.20;;;27.20;63.20;;;;;;5048836;23;20133;-45
2022/04/05 09:29:07;;;;;;;2.30;2.10;;;27.20;63.40;;;;;;5043941;23;20328;-40
2022/04/05 09:31:12;;;;;;;2.88;2.03;;;27.20;63.30;;;;;;5041380;23;20144;-42
2022/04/05 09:33:15;;;;;;;2.58;2.15;;;27.20;63.30;;;;;;5040644;23;20140;-42
2022/04/05 09:35:20;;;;;;;1.90;1.80;;;27.20;63.30;;;;;;5043171;23;20056;-42
2022/04/05 09:37:26;;;;;;;2.63;2.00;;;27.20;63.40;;;;;;5047426;23;20022;-43
2022/04/05 09:39:28;;;;;;;2.40;1.90;;;27.20;63.40;;;;;;5040551;23;20117;-40
2022/04/05 09:41:33;;;;;;;4.13;2.05;;;27.20;63.50;;;;;;5040115;23;20041;-42
2022/04/05 09:43:36;;;;;;;1.80;1.70;;;27.20;64.10;;;;;;5039506;23;20072;-40
2022/04/05 09:46:07;;;;;;;8.68;2.28;;;27.20;63.50;;;;;;5043314;23;20061;-45
2022/04/05 09:48:09;;;;;;;5.88;1.90;;;27.10;63.50;;;;;;5008499;23;20926;-43
2022/04/05 09:50:12;;;;;;;3.50;1.90;;;27.10;63.40;;;;;;5042725;23;20389;-39
2022/04/05 09:52:33;;;;;;;2.38;2.00;;;27.10;63.60;;;;;;5045322;23;20041;-40
2022/04/05 09:54:35;;;;;;;1.90;1.48;;;27.10;63.70;;;;;;5042052;23;20041;-43
2022/04/05 09:56:41;;;;;;;1.85;1.70;;;27.10;63.70;;;;;;5048248;23;20025;-46
2022/04/05 09:58:48;;;;;;;3.78;2.47;;;27.10;63.50;;;;;;5044543;23;20965;-41
2022/04/05 10:01:08;;;;;;;7.60;2.30;;;27.10;63.30;;;;;;5042103;23;20696;-40
2022/04/05 10:03:11;;;;;;;3.92;2.40;;;27.10;62.80;;;;;;5046638;23;20527;-41
2022/04/05 10:05:13;;;;;;;2.80;2.22;;;27.10;63.00;;;;;;5042594;23;20053;-44
2022/04/05 10:07:15;;;;;;;7.18;2.10;;;27.10;63.10;;;;;;5042019;23;20056;-43
2022/04/05 10:09:21;;;;;;;5.90;2.43;;;27.10;63.20;;;;;;5044575;23;20113;-44
2022/04/05 10:11:32;;;;;;;2.75;1.88;;;27.10;63.40;;;;;;5046625;23;21125;-42
2022/04/05 10:13:34;;;;;;;2.05;1.75;;;27.00;63.50;;;;;;5046024;23;20099;-43
2022/04/05 10:15:37;;;;;;;2.90;2.00;;;27.00;63.50;;;;;;5043915;23;20710;-44
2022/04/05 10:17:44;;;;;;;3.25;2.08;;;27.10;63.60;;;;;;5041827;23;20139;-44
2022/04/05 10:19:49;;;;;;;1.98;1.60;;;27.00;63.60;;;;;;5048982;23;20064;-41
2022/04/05 10:21:51;;;;;;;2.05;1.80;;;27.00;63.60;;;;;;5024180;23;20026;-43
2022/04/05 10:23:58;;;;;;;2.40;1.90;;;27.00;63.60;;;;;;5043139;23;20040;-42
2022/04/05 10:26:01;;;;;;;1.60;1.45;;;27.00;63.60;;;;;;5039685;23;20047;-41
2022/04/05 10:28:03;;;;;;;2.97;1.70;;;27.00;63.60;;;;;;5042898;23;20029;-45
2022/04/05 10:30:28;;;;;;;2.30;1.58;;;27.10;63.80;;;;;;5023041;23;20145;-45
2022/04/05 10:32:53;;;;;;;1.73;1.60;;;27.00;63.80;;;;;;5040806;23;20041;-49
2022/04/05 10:35:07;;;;;;;1.50;1.40;;;27.00;63.80;;;;;;5025584;23;20021;-44
2022/04/05 10:37:10;;;;;;;1.70;1.50;;;27.00;63.90;;;;;;5043398;23;20104;-41
2022/04/05 10:39:24;;;;;;;1.83;1.50;;;27.00;63.90;;;;;;5014517;23;20033;-46
2022/04/05 10:41:29;;;;;;;2.90;1.50;;;27.00;63.90;;;;;;5042123;23;20030;-49
2022/04/05 10:43:31;;;;;;;2.65;1.42;;;27.00;63.90;;;;;;5043153;23;20650;-43
2022/04/05 10:45:44;;;;;;;1.77;1.48;;;27.00;63.80;;;;;;5044535;23;20080;-44
2022/04/05 10:48:12;;;;;;;1.40;1.30;;;27.00;63.90;;;;;;5044728;23;20033;-43
2022/04/05 10:50:19;;;;;;;2.28;1.50;;;27.00;63.90;;;;;;5013679;23;20029;-42
2022/04/05 10:52:28;;;;;;;2.08;1.30;;;27.00;63.90;;;;;;4991352;23;20507;-42
2022/04/05 10:54:40;;;;;;;1.60;1.42;;;27.00;63.90;;;;;;5040887;23;20072;-44
2022/04/05 10:56:42;;;;;;;1.50;1.30;;;27.00;63.90;;;;;;5042599;23;21105;-42
2022/04/05 10:58:53;;;;;;;1.77;1.30;;;27.00;63.90;;;;;;5045469;23;20123;-45
2022/04/05 11:01:16;;;;;;;1.63;1.38;;;27.00;63.90;;;;;;5048132;23;20604;-44